createdAt,value
2019-03-23T00:02:12.693Z,59.17
2019-03-23T00:08:17.401Z,60.33
2019-03-23T00:14:22.044Z,68.50
2019-03-23T00:20:26.602Z,58.93
2019-03-23T00:26:31.223Z,68.30
2019-03-23T00:32:35.946Z,65.50
2019-03-23T00:38:40.504Z,66.33
2019-03-23T00:44:45.080Z,65.97
2019-03-23T00:50:49.628Z,58.47
2019-03-23T00:56:54.185Z,61.27
2019-03-23T01:02:58.751Z,57.70
2019-03-23T01:09:06.660Z,58.27
2019-03-23T01:15:13.926Z,64.07
2019-03-23T01:21:18.534Z,58.73
2019-03-23T01:27:23.089Z,58.00
2019-03-23T01:33:27.649Z,65.93
2019-03-23T01:39:32.201Z,71.83
2019-03-23T01:45:36.827Z,68.47
2019-03-23T01:51:41.453Z,64.30
2019-03-23T01:57:46.009Z,64.63
2019-03-23T02:03:50.646Z,67.10
2019-03-23T02:09:55.200Z,70.03
2019-03-23T02:15:59.827Z,55.97
2019-03-23T02:22:04.453Z,63.83
2019-03-23T02:28:09.021Z,69.67
2019-03-23T02:34:13.577Z,72.90
2019-03-23T02:40:18.149Z,68.97
2019-03-23T02:46:22.709Z,63.77
2019-03-23T02:52:27.268Z,54.50
2019-03-23T02:58:31.844Z,58.10
2019-03-23T03:04:36.407Z,58.00
2019-03-23T03:10:42.196Z,64.20
2019-03-23T03:16:46.746Z,48.07
2019-03-23T03:22:51.309Z,50.60
2019-03-23T03:28:55.849Z,52.93
2019-03-23T03:35:00.743Z,52.97
2019-03-23T03:41:05.531Z,44.13
2019-03-23T03:47:10.092Z,45.40
2019-03-23T03:53:14.640Z,41.07
2019-03-23T03:59:19.208Z,50.30
2019-03-23T04:05:23.788Z,55.97
2019-03-23T04:11:28.320Z,48.20
2019-03-23T04:17:32.883Z,43.60
2019-03-23T04:23:37.434Z,51.27
2019-03-23T04:29:41.981Z,45.70
2019-03-23T04:35:46.547Z,53.70
2019-03-23T04:41:51.169Z,44.73
2019-03-23T04:47:55.719Z,49.50
2019-03-23T04:54:00.273Z,54.53
2019-03-23T05:00:09.044Z,48.30
2019-03-23T05:06:13.610Z,59.40
2019-03-23T05:12:18.161Z,53.33
2019-03-23T05:18:22.716Z,54.30
2019-03-23T05:24:27.269Z,46.60
2019-03-23T05:30:31.826Z,43.17
2019-03-23T05:36:36.488Z,50.07
2019-03-23T05:42:41.045Z,41.53
2019-03-23T05:48:45.607Z,45.00
2019-03-23T05:54:50.168Z,55.17
2019-03-23T06:00:54.724Z,48.57
2019-03-23T06:06:59.283Z,50.47
2019-03-23T06:13:03.909Z,46.93
2019-03-23T06:19:08.465Z,55.27
2019-03-23T06:25:13.044Z,62.40
2019-03-23T06:31:17.592Z,54.50
2019-03-23T06:37:22.142Z,57.57
2019-03-23T06:43:26.696Z,68.60
2019-03-23T06:49:31.253Z,44.30
2019-03-23T06:55:36.082Z,49.77
2019-03-23T07:01:40.637Z,61.40
2019-03-23T07:07:45.189Z,56.57
2019-03-23T07:13:49.757Z,43.73
2019-03-23T07:19:54.323Z,35.30
2019-03-23T07:25:58.895Z,36.17
2019-03-23T07:32:05.947Z,45.63
2019-03-23T07:38:09.757Z,44.67
2019-03-23T07:44:14.323Z,42.53
2019-03-23T07:50:18.963Z,39.20
2019-03-23T07:56:23.534Z,45.63
2019-03-23T08:02:28.105Z,45.63
2019-03-23T08:08:32.680Z,39.17
2019-03-23T08:14:37.322Z,42.13
2019-03-23T08:20:41.962Z,42.17
2019-03-23T08:26:46.545Z,38.10
2019-03-23T08:32:51.277Z,39.70
2019-03-23T08:38:55.915Z,37.50
2019-03-23T08:45:00.501Z,41.00
2019-03-23T08:51:05.217Z,46.07
2019-03-23T08:57:09.778Z,49.87
2019-03-23T09:03:14.429Z,40.27
2019-03-23T09:09:18.994Z,41.97
2019-03-23T09:15:23.645Z,41.53
2019-03-23T09:21:28.223Z,46.90
2019-03-23T09:27:32.866Z,47.17
2019-03-23T09:33:37.457Z,51.93
2019-03-23T09:39:42.025Z,52.10
2019-03-23T09:45:46.606Z,59.70
2019-03-23T09:51:51.171Z,63.03
2019-03-23T09:57:55.751Z,57.23
2019-03-23T10:04:00.335Z,64.80
2019-03-23T10:10:06.412Z,65.67
2019-03-23T10:16:11.003Z,65.83
2019-03-23T10:22:15.593Z,67.80
2019-03-23T10:28:20.158Z,82.17
2019-03-23T10:34:24.722Z,81.50
2019-03-23T10:40:32.767Z,64.03
2019-03-23T10:46:35.586Z,71.17
2019-03-23T10:52:40.255Z,62.53
2019-03-23T10:58:44.835Z,64.87
2019-03-23T11:04:49.564Z,67.63
2019-03-23T11:10:54.135Z,66.73
2019-03-23T11:16:58.705Z,63.53
2019-03-23T11:23:03.265Z,76.93
2019-03-23T11:29:08.526Z,71.10
2019-03-23T11:35:13.669Z,69.97
2019-03-23T11:41:18.316Z,76.97
2019-03-23T11:47:22.931Z,77.03
2019-03-23T11:53:27.528Z,81.80
2019-03-23T11:59:32.108Z,71.10
2019-03-23T12:05:36.677Z,77.47
2019-03-23T12:11:41.258Z,74.03
2019-03-23T12:17:45.996Z,76.07
2019-03-23T12:23:50.561Z,85.30
2019-03-23T12:29:55.153Z,91.13
2019-03-23T12:35:59.825Z,89.00
2019-03-23T12:42:04.404Z,95.87
2019-03-23T12:48:08.979Z,76.40
2019-03-23T12:54:13.549Z,85.17
2019-03-23T13:00:18.545Z,77.50
2019-03-23T13:06:23.136Z,87.17
2019-03-23T13:12:27.729Z,84.10
2019-03-23T13:18:32.446Z,76.90
2019-03-23T13:24:37.025Z,92.37
2019-03-23T13:30:41.603Z,87.93
2019-03-23T13:36:46.189Z,65.60
2019-03-23T13:42:50.758Z,53.93
2019-03-23T13:48:55.402Z,59.67
2019-03-23T13:55:00.167Z,51.77
2019-03-23T14:01:04.879Z,51.10
2019-03-23T14:07:10.355Z,50.57
2019-03-23T14:13:14.931Z,53.20
2019-03-23T14:19:19.652Z,53.67
2019-03-23T14:25:24.218Z,54.50
2019-03-23T14:31:28.800Z,62.70
2019-03-23T14:37:33.367Z,52.03
2019-03-23T14:43:37.930Z,41.30
2019-03-23T14:49:42.523Z,61.57
2019-03-23T14:55:47.319Z,52.50
2019-03-23T15:01:51.976Z,44.33
2019-03-23T15:07:56.629Z,40.23
2019-03-23T15:14:01.195Z,42.40
2019-03-23T15:20:07.830Z,49.77
2019-03-23T15:26:12.519Z,40.57
2019-03-23T15:32:17.096Z,37.00
2019-03-23T15:38:21.670Z,39.67
2019-03-23T15:44:26.248Z,37.27
2019-03-23T15:50:30.829Z,36.67
2019-03-23T15:56:35.586Z,42.00
2019-03-23T16:02:42.904Z,39.67
2019-03-23T16:08:47.687Z,37.80
2019-03-23T16:14:52.271Z,37.20
2019-03-23T16:20:56.893Z,43.30
2019-03-23T16:27:01.569Z,48.80
2019-03-23T16:33:06.325Z,42.10
2019-03-23T16:39:10.965Z,69.13
2019-03-23T16:45:16.356Z,48.67
2019-03-23T16:51:20.952Z,47.00
2019-03-23T16:57:25.735Z,44.83
2019-03-23T17:03:30.316Z,48.67
2019-03-23T17:09:34.876Z,63.83
2019-03-23T17:15:39.435Z,66.50
2019-03-23T17:21:44.166Z,61.27
2019-03-23T17:27:48.745Z,60.63
2019-03-23T17:33:53.400Z,61.07
2019-03-23T17:39:57.953Z,62.60
2019-03-23T17:46:02.673Z,71.10
2019-03-23T17:52:07.352Z,53.97
2019-03-23T17:58:11.940Z,67.87
2019-03-23T18:04:16.580Z,57.33
2019-03-23T18:10:21.236Z,61.87
2019-03-23T18:16:25.952Z,61.13
2019-03-23T18:22:30.686Z,66.80
2019-03-23T18:28:35.315Z,86.47
2019-03-23T18:34:39.896Z,146.13
2019-03-23T18:40:44.650Z,85.13
2019-03-23T18:46:49.457Z,59.60
2019-03-23T18:52:54.016Z,68.17
2019-03-23T18:58:58.587Z,77.33
2019-03-23T19:05:03.254Z,68.40
2019-03-23T19:11:07.827Z,64.40
2019-03-23T19:17:12.408Z,70.43
2019-03-23T19:23:16.982Z,67.63
2019-03-23T19:29:21.567Z,67.17
2019-03-23T19:35:26.308Z,74.27
2019-03-23T19:41:30.994Z,78.63
2019-03-23T19:47:35.652Z,79.10
2019-03-23T19:53:40.409Z,79.30
2019-03-23T19:59:44.992Z,79.80
2019-03-23T20:05:49.640Z,87.13
2019-03-23T20:11:54.225Z,89.13
2019-03-23T20:17:58.819Z,96.30
2019-03-23T20:24:03.397Z,89.90
2019-03-23T20:30:11.487Z,83.67
2019-03-23T20:36:16.102Z,80.03
2019-03-23T20:42:20.760Z,83.27
2019-03-23T20:48:25.689Z,80.07
2019-03-23T20:54:30.403Z,51.43
2019-03-23T21:00:35.010Z,54.20
2019-03-23T21:06:39.591Z,52.43
2019-03-23T21:12:44.181Z,54.27
2019-03-23T21:18:48.761Z,54.73
2019-03-23T21:24:53.325Z,50.93
2019-03-23T21:30:57.897Z,50.53
2019-03-23T21:37:02.535Z,63.07
2019-03-23T21:43:07.103Z,52.00
2019-03-23T21:49:11.670Z,51.93
2019-03-23T21:55:16.478Z,47.17
2019-03-23T22:01:21.037Z,47.43
2019-03-23T22:07:25.598Z,52.23
2019-03-23T22:13:30.173Z,52.43
2019-03-23T22:19:34.810Z,51.90
2019-03-23T22:25:39.434Z,47.80
2019-03-23T22:31:44.006Z,45.00
2019-03-23T22:37:48.570Z,43.83
2019-03-23T22:43:53.112Z,42.90
2019-03-23T22:49:57.682Z,41.40
2019-03-23T22:56:02.317Z,53.37
2019-03-23T23:02:06.887Z,47.17
2019-03-23T23:08:11.470Z,41.90
2019-03-23T23:14:16.011Z,30.53
2019-03-23T23:20:20.596Z,41.63
2019-03-23T23:26:25.249Z,31.93
2019-03-23T23:32:29.796Z,32.33
2019-03-23T23:38:34.365Z,32.93
2019-03-23T23:44:38.918Z,38.13
2019-03-23T23:50:43.470Z,39.57
2019-03-23T23:56:48.153Z,30.73
